sensor_id;sensor_type;location;lat;lon;timestamp;pressure;altitude;pressure_sealevel;temperature;humidity
18323;BME280;9287;49.456;11.064;2023-05-20T00:01:15;98346.22;;;14.18;100.00
18323;BME280;9287;49.456;11.064;2023-05-20T00:03:45;98345.59;;;14.28;100.00
18323;BME280;9287;49.456;11.064;2023-05-20T00:06:15;98339.38;;;14.31;100.00
18323;BME280;9287;49.456;11.064;2023-05-20T00:08:45;98345.47;;;14.21;100.00
18323;BME280;9287;49.456;11.064;2023-05-20T00:11:15;98337.56;;;14.16;100.00
18323;BME280;9287;49.456;11.064;2023-05-20T00:13:45;98336.78;;;14.15;100.00
18323;BME280;9287;49.456;11.064;2023-05-20T00:16:14;98339.94;;;14.17;100.00
18323;BME280;9287;49.456;11.064;2023-05-20T00:18:42;98328.25;;;14.24;100.00
18323;BME280;9287;49.456;11.064;2023-05-20T00:21:11;98327.59;;;14.31;100.00
18323;BME280;9287;49.456;11.064;2023-05-20T00:23:41;98328.38;;;14.31;100.00
18323;BME280;9287;49.456;11.064;2023-05-20T00:26:10;98324.19;;;14.37;100.00
18323;BME280;9287;49.456;11.064;2023-05-20T00:28:38;98326.75;;;14.26;100.00
18323;BME280;9287;49.456;11.064;2023-05-20T00:31:06;98317.28;;;14.24;100.00
18323;BME280;9287;49.456;11.064;2023-05-20T00:33:43;98329.13;;;14.28;100.00
18323;BME280;9287;49.456;11.064;2023-05-20T00:36:12;98327.22;;;14.32;100.00
18323;BME280;9287;49.456;11.064;2023-05-20T00:38:44;98325.22;;;14.29;100.00
18323;BME280;9287;49.456;11.064;2023-05-20T00:41:15;98318.13;;;14.28;100.00
18323;BME280;9287;49.456;11.064;2023-05-20T00:43:52;98312.63;;;14.28;100.00
18323;BME280;9287;49.456;11.064;2023-05-20T00:46:23;98324.78;;;14.27;100.00
18323;BME280;9287;49.456;11.064;2023-05-20T00:48:54;98329.97;;;14.32;100.00
18323;BME280;9287;49.456;11.064;2023-05-20T00:51:24;98320.44;;;14.26;100.00
18323;BME280;9287;49.456;11.064;2023-05-20T00:53:55;98323.19;;;14.26;100.00
18323;BME280;9287;49.456;11.064;2023-05-20T00:56:24;98324.00;;;14.26;100.00
18323;BME280;9287;49.456;11.064;2023-05-20T00:58:57;98320.03;;;14.24;100.00
18323;BME280;9287;49.456;11.064;2023-05-20T01:01:30;98321.25;;;14.26;100.00
18323;BME280;9287;49.456;11.064;2023-05-20T01:04:01;98320.44;;;14.26;100.00
18323;BME280;9287;49.456;11.064;2023-05-20T01:06:31;98319.72;;;14.29;100.00
18323;BME280;9287;49.456;11.064;2023-05-20T01:09:03;98317.34;;;14.27;100.00
18323;BME280;9287;49.456;11.064;2023-05-20T01:11:36;98322.78;;;14.24;100.00
18323;BME280;9287;49.456;11.064;2023-05-20T01:14:07;98325.16;;;14.25;100.00
18323;BME280;9287;49.456;11.064;2023-05-20T01:16:46;98314.09;;;14.22;100.00
18323;BME280;9287;49.456;11.064;2023-05-20T01:19:25;98310.25;;;14.26;100.00
18323;BME280;9287;49.456;11.064;2023-05-20T01:21:56;98312.63;;;14.28;100.00
18323;BME280;9287;49.456;11.064;2023-05-20T01:24:30;98298.06;;;14.24;100.00
18323;BME280;9287;49.456;11.064;2023-05-20T01:26:59;98299.22;;;14.23;100.00
18323;BME280;9287;49.456;11.064;2023-05-20T01:29:29;98306.28;;;14.24;100.00
18323;BME280;9287;49.456;11.064;2023-05-20T01:32:00;98302.31;;;14.21;100.00
18323;BME280;9287;49.456;11.064;2023-05-20T01:34:31;98307.03;;;14.21;100.00
18323;BME280;9287;49.456;11.064;2023-05-20T01:37:01;98300.69;;;14.17;100.00
18323;BME280;9287;49.456;11.064;2023-05-20T01:39:33;98306.28;;;14.24;100.00
18323;BME280;9287;49.456;11.064;2023-05-20T01:42:08;98304.28;;;14.21;100.00
18323;BME280;9287;49.456;11.064;2023-05-20T01:44:38;98303.19;;;14.25;100.00
18323;BME280;9287;49.456;11.064;2023-05-20T01:47:08;98296.16;;;14.28;100.00
18323;BME280;9287;49.456;11.064;2023-05-20T01:49:40;98295.44;;;14.31;100.00
18323;BME280;9287;49.456;11.064;2023-05-20T01:52:10;98302.38;;;14.25;100.00
18323;BME280;9287;49.456;11.064;2023-05-20T01:54:44;98299.94;;;14.20;100.00
18323;BME280;9287;49.456;11.064;2023-05-20T01:59:46;98299.22;;;14.23;100.00
18323;BME280;9287;49.456;11.064;2023-05-20T02:02:18;98294.09;;;14.21;100.00
18323;BME280;9287;49.456;11.064;2023-05-20T02:04:49;98295.94;;;14.14;100.00
18323;BME280;9287;49.456;11.064;2023-05-20T02:07:18;98288.44;;;14.11;100.00
18323;BME280;9287;49.456;11.064;2023-05-20T02:09:58;98291.31;;;14.18;100.00
18323;BME280;9287;49.456;11.064;2023-05-20T02:12:26;98280.19;;;14.11;100.00
18323;BME280;9287;49.456;11.064;2023-05-20T02:14:56;98282.94;;;14.11;100.00
18323;BME280;9287;49.456;11.064;2023-05-20T02:17:25;98279.75;;;14.09;100.00
18323;BME280;9287;49.456;11.064;2023-05-20T02:19:54;98281.19;;;13.99;100.00
18323;BME280;9287;49.456;11.064;2023-05-20T02:22:23;98287.06;;;13.98;100.00
18323;BME280;9287;49.456;11.064;2023-05-20T02:24:51;98280.84;;;14.01;100.00
18323;BME280;9287;49.456;11.064;2023-05-20T02:27:26;98280.50;;;14.06;100.00
18323;BME280;9287;49.456;11.064;2023-05-20T02:29:58;98282.09;;;14.07;100.00
18323;BME280;9287;49.456;11.064;2023-05-20T02:32:33;98274.91;;;13.99;100.00
18323;BME280;9287;49.456;11.064;2023-05-20T02:35:02;98280.69;;;13.93;100.00
18323;BME280;9287;49.456;11.064;2023-05-20T02:37:32;98277.44;;;13.84;100.00
18323;BME280;9287;49.456;11.064;2023-05-20T02:40:10;98276.56;;;13.80;100.00
18323;BME280;9287;49.456;11.064;2023-05-20T02:42:44;98290.72;;;13.82;100.00
18323;BME280;9287;49.456;11.064;2023-05-20T02:45:27;98289.22;;;13.88;100.00
18323;BME280;9287;49.456;11.064;2023-05-20T02:47:58;98285.97;;;13.79;100.00
18323;BME280;9287;49.456;11.064;2023-05-20T02:50:30;98284.97;;;13.68;100.00
18323;BME280;9287;49.456;11.064;2023-05-20T02:53:04;98285.38;;;13.70;100.00
18323;BME280;9287;49.456;11.064;2023-05-20T02:55:33;98286.53;;;13.69;100.00
18323;BME280;9287;49.456;11.064;2023-05-20T02:58:05;98299.53;;;13.72;100.00
18323;BME280;9287;49.456;11.064;2023-05-20T03:00:37;98300.66;;;13.68;100.00
18323;BME280;9287;49.456;11.064;2023-05-20T03:03:07;98293.50;;;13.63;100.00
18323;BME280;9287;49.456;11.064;2023-05-20T03:05:37;98289.47;;;13.57;100.00
18323;BME280;9287;49.456;11.064;2023-05-20T03:08:08;98288.75;;;13.60;100.00
18323;BME280;9287;49.456;11.064;2023-05-20T03:10:50;98296.53;;;13.58;100.00
18323;BME280;9287;49.456;11.064;2023-05-20T03:13:24;98296.69;;;13.65;100.00
18323;BME280;9287;49.456;11.064;2023-05-20T03:15:54;98292.34;;;13.64;100.00
18323;BME280;9287;49.456;11.064;2023-05-20T03:18:23;98300.94;;;13.63;100.00
18323;BME280;9287;49.456;11.064;2023-05-20T03:20:53;98300.59;;;13.64;100.00
18323;BME280;9287;49.456;11.064;2023-05-20T03:23:22;98298.22;;;13.63;100.00
18323;BME280;9287;49.456;11.064;2023-05-20T03:25:50;98298.94;;;13.59;100.00
18323;BME280;9287;49.456;11.064;2023-05-20T03:28:24;98295.69;;;13.54;100.00
18323;BME280;9287;49.456;11.064;2023-05-20T03:31:01;98304.78;;;13.58;100.00
18323;BME280;9287;49.456;11.064;2023-05-20T03:33:30;98309.19;;;13.63;100.00
18323;BME280;9287;49.456;11.064;2023-05-20T03:36:02;98305.66;;;13.62;100.00
18323;BME280;9287;49.456;11.064;2023-05-20T03:38:29;98307.09;;;13.56;100.00
18323;BME280;9287;49.456;11.064;2023-05-20T03:40:58;98308.97;;;13.52;100.00
18323;BME280;9287;49.456;11.064;2023-05-20T03:43:28;98308.97;;;13.52;100.00
18323;BME280;9287;49.456;11.064;2023-05-20T03:45:58;98315.19;;;13.49;100.00
18323;BME280;9287;49.456;11.064;2023-05-20T03:48:27;98302.50;;;13.41;100.00
18323;BME280;9287;49.456;11.064;2023-05-20T03:50:56;98301.78;;;13.44;100.00
18323;BME280;9287;49.456;11.064;2023-05-20T03:53:29;98301.78;;;13.44;100.00
18323;BME280;9287;49.456;11.064;2023-05-20T03:55:58;98291.53;;;13.41;100.00
18323;BME280;9287;49.456;11.064;2023-05-20T03:58:30;98291.44;;;13.37;100.00
18323;BME280;9287;49.456;11.064;2023-05-20T04:01:04;98300.91;;;13.40;100.00
18323;BME280;9287;49.456;11.064;2023-05-20T04:03:33;98312.59;;;13.37;100.00
18323;BME280;9287;49.456;11.064;2023-05-20T04:06:03;98302.41;;;13.37;100.00
18323;BME280;9287;49.456;11.064;2023-05-20T04:08:31;98303.81;;;13.28;100.00
18323;BME280;9287;49.456;11.064;2023-05-20T04:11:09;98304.97;;;13.27;100.00
18323;BME280;9287;49.456;11.064;2023-05-20T04:13:40;98305.84;;;13.31;100.00
18323;BME280;9287;49.456;11.064;2023-05-20T04:16:09;98302.94;;;13.23;100.00
18323;BME280;9287;49.456;11.064;2023-05-20T04:18:41;98296.31;;;13.24;100.00
18323;BME280;9287;49.456;11.064;2023-05-20T04:21:14;98295.00;;;13.18;100.00
18323;BME280;9287;49.456;11.064;2023-05-20T04:23:44;98296.88;;;13.14;100.00
18323;BME280;9287;49.456;11.064;2023-05-20T04:26:13;98299.34;;;13.19;100.00
18323;BME280;9287;49.456;11.064;2023-05-20T04:28:45;98298.34;;;13.28;100.00
18323;BME280;9287;49.456;11.064;2023-05-20T04:31:15;98290.09;;;13.28;100.00
18323;BME280;9287;49.456;11.064;2023-05-20T04:33:46;98287.38;;;13.28;100.00
18323;BME280;9287;49.456;11.064;2023-05-20T04:36:14;98283.47;;;13.29;100.00
18323;BME280;9287;49.456;11.064;2023-05-20T04:38:43;98289.94;;;13.40;100.00
18323;BME280;9287;49.456;11.064;2023-05-20T04:41:13;98297.72;;;13.38;100.00
18323;BME280;9287;49.456;11.064;2023-05-20T04:43:42;98289.50;;;13.38;100.00
18323;BME280;9287;49.456;11.064;2023-05-20T04:46:14;98298.75;;;13.49;100.00
18323;BME280;9287;49.456;11.064;2023-05-20T04:48:46;98294.69;;;13.43;100.00
18323;BME280;9287;49.456;11.064;2023-05-20T04:51:25;98293.53;;;13.44;100.00
18323;BME280;9287;49.456;11.064;2023-05-20T04:53:56;98297.16;;;13.48;100.00
18323;BME280;9287;49.456;11.064;2023-05-20T04:56:25;98300.34;;;13.50;100.00
18323;BME280;9287;49.456;11.064;2023-05-20T04:58:54;98298.84;;;13.56;100.00
18323;BME280;9287;49.456;11.064;2023-05-20T05:01:26;98294.25;;;13.60;100.00
18323;BME280;9287;49.456;11.064;2023-05-20T05:03:55;98300.66;;;13.68;100.00
18323;BME280;9287;49.456;11.064;2023-05-20T05:06:32;98301.69;;;13.82;100.00
18323;BME280;9287;49.456;11.064;2023-05-20T05:09:03;98296.06;;;13.75;100.00
18323;BME280;9287;49.456;11.064;2023-05-20T05:11:34;98289.13;;;13.81;100.00
18323;BME280;9287;49.456;11.064;2023-05-20T05:14:03;98271.66;;;13.70;100.00
18323;BME280;9287;49.456;11.064;2023-05-20T05:16:37;98288.34;;;13.81;100.00
18323;BME280;9287;49.456;11.064;2023-05-20T05:19:09;98274.41;;;13.93;100.00
18323;BME280;9287;49.456;11.064;2023-05-20T05:21:43;98275.34;;;14.01;100.00
18323;BME280;9287;49.456;11.064;2023-05-20T05:24:14;98277.88;;;14.13;100.00
18323;BME280;9287;49.456;11.064;2023-05-20T05:26:42;98273.34;;;14.24;100.00
18323;BME280;9287;49.456;11.064;2023-05-20T05:29:11;98269.44;;;14.25;100.00
18323;BME280;9287;49.456;11.064;2023-05-20T05:31:43;98266.97;;;14.16;100.00
18323;BME280;9287;49.456;11.064;2023-05-20T05:34:11;98267.22;;;14.34;100.00
18323;BME280;9287;49.456;11.064;2023-05-20T05:36:42;98271.06;;;14.52;100.00
18323;BME280;9287;49.456;11.064;2023-05-20T05:39:10;98269.09;;;14.53;100.00
18323;BME280;9287;49.456;11.064;2023-05-20T05:41:38;98268.03;;;14.38;100.00
18323;BME280;9287;49.456;11.064;2023-05-20T05:44:06;98261.84;;;14.41;100.00
18323;BME280;9287;49.456;11.064;2023-05-20T05:46:34;98259.41;;;14.36;100.00
18323;BME280;9287;49.456;11.064;2023-05-20T05:49:04;98257.06;;;14.38;100.00
18323;BME280;9287;49.456;11.064;2023-05-20T05:51:32;98259.63;;;14.50;100.00
18323;BME280;9287;49.456;11.064;2023-05-20T05:53:59;98272.50;;;14.73;100.00
18323;BME280;9287;49.456;11.064;2023-05-20T05:56:27;98258.84;;;14.80;100.00
18323;BME280;9287;49.456;11.064;2023-05-20T05:58:55;98258.44;;;14.78;100.00
18323;BME280;9287;49.456;11.064;2023-05-20T06:01:23;98260.38;;;14.77;100.00
18323;BME280;9287;49.456;11.064;2023-05-20T06:03:51;98272.53;;;14.76;100.00
18323;BME280;9287;49.456;11.064;2023-05-20T06:06:20;98271.91;;;14.86;100.00
18323;BME280;9287;49.456;11.064;2023-05-20T06:08:48;98263.34;;;14.95;100.00
18323;BME280;9287;49.456;11.064;2023-05-20T06:11:16;98255.53;;;14.97;100.00
18323;BME280;9287;49.456;11.064;2023-05-20T06:13:47;98252.66;;;15.20;100.00
18323;BME280;9287;49.456;11.064;2023-05-20T06:16:15;98244.09;;;15.28;100.00
18323;BME280;9287;49.456;11.064;2023-05-20T06:18:44;98238.81;;;15.50;100.00
18323;BME280;9287;49.456;11.064;2023-05-20T06:21:16;98243.44;;;15.39;100.00
18323;BME280;9287;49.456;11.064;2023-05-20T06:23:45;98244.44;;;15.57;100.00
18323;BME280;9287;49.456;11.064;2023-05-20T06:26:12;98242.63;;;15.75;100.00
18323;BME280;9287;49.456;11.064;2023-05-20T06:28:40;98237.53;;;15.81;100.00
18323;BME280;9287;49.456;11.064;2023-05-20T06:31:08;98242.25;;;15.80;100.00
18323;BME280;9287;49.456;11.064;2023-05-20T06:33:36;98246.44;;;16.08;100.00
18323;BME280;9287;49.456;11.064;2023-05-20T06:36:05;98248.78;;;16.06;100.00
18323;BME280;9287;49.456;11.064;2023-05-20T06:38:33;98245.72;;;16.18;100.00
18323;BME280;9287;49.456;11.064;2023-05-20T06:41:03;98248.81;;;16.13;100.00
18323;BME280;9287;49.456;11.064;2023-05-20T06:43:31;98240.78;;;15.93;100.00
18323;BME280;9287;49.456;11.064;2023-05-20T06:45:59;98248.13;;;16.23;100.00
18323;BME280;9287;49.456;11.064;2023-05-20T06:48:27;98243.47;;;16.34;100.00
18323;BME280;9287;49.456;11.064;2023-05-20T06:50:55;98243.44;;;16.27;100.00
18323;BME280;9287;49.456;11.064;2023-05-20T06:53:23;98241.16;;;16.43;100.00
18323;BME280;9287;49.456;11.064;2023-05-20T06:55:52;98236.00;;;16.38;100.00
18323;BME280;9287;49.456;11.064;2023-05-20T06:58:22;98223.97;;;16.64;100.00
18323;BME280;9287;49.456;11.064;2023-05-20T07:00:50;98224.06;;;16.78;100.00
18323;BME280;9287;49.456;11.064;2023-05-20T07:03:17;98228.53;;;17.25;100.00
18323;BME280;9287;49.456;11.064;2023-05-20T07:05:45;98225.00;;;17.25;100.00
18323;BME280;9287;49.456;11.064;2023-05-20T07:08:13;98226.56;;;17.22;100.00
18323;BME280;9287;49.456;11.064;2023-05-20T07:10:41;98229.81;;;17.67;98.35
18323;BME280;9287;49.456;11.064;2023-05-20T07:13:09;98247.56;;;18.30;92.68
18323;BME280;9287;49.456;11.064;2023-05-20T07:15:38;98232.16;;;18.43;86.93
18323;BME280;9287;49.456;11.064;2023-05-20T07:18:06;98227.75;;;19.58;77.38
18323;BME280;9287;49.456;11.064;2023-05-20T07:20:34;98218.25;;;21.19;66.88
18323;BME280;9287;49.456;11.064;2023-05-20T07:23:01;98223.66;;;22.74;55.11
18323;BME280;9287;49.456;11.064;2023-05-20T07:25:30;98222.00;;;24.53;49.37
18323;BME280;9287;49.456;11.064;2023-05-20T07:27:57;98216.19;;;23.66;50.79
18323;BME280;9287;49.456;11.064;2023-05-20T07:30:26;98215.41;;;23.98;49.67
18323;BME280;9287;49.456;11.064;2023-05-20T07:32:55;98203.19;;;23.04;50.90
18323;BME280;9287;49.456;11.064;2023-05-20T07:35:23;98213.66;;;24.94;47.83
18323;BME280;9287;49.456;11.064;2023-05-20T07:37:51;98211.34;;;22.95;50.71
18323;BME280;9287;49.456;11.064;2023-05-20T07:40:19;98195.00;;;23.52;49.09
18323;BME280;9287;49.456;11.064;2023-05-20T07:42:46;98204.88;;;23.01;50.84
18323;BME280;9287;49.456;11.064;2023-05-20T07:45:15;98208.09;;;22.13;52.08
18323;BME280;9287;49.456;11.064;2023-05-20T07:47:42;98205.91;;;22.87;52.11
18323;BME280;9287;49.456;11.064;2023-05-20T07:50:12;98199.63;;;23.91;49.43
18323;BME280;9287;49.456;11.064;2023-05-20T07:52:40;98206.84;;;24.95;46.64
18323;BME280;9287;49.456;11.064;2023-05-20T07:55:22;98200.63;;;22.73;51.08
18323;BME280;9287;49.456;11.064;2023-05-20T07:57:49;98193.28;;;25.23;46.73
18323;BME280;9287;49.456;11.064;2023-05-20T08:00:18;98192.63;;;22.75;51.89
18323;BME280;9287;49.456;11.064;2023-05-20T08:02:46;98195.88;;;25.55;44.44
18323;BME280;9287;49.456;11.064;2023-05-20T08:05:15;98194.66;;;24.60;46.80
18323;BME280;9287;49.456;11.064;2023-05-20T08:07:43;98197.59;;;24.41;46.97
18323;BME280;9287;49.456;11.064;2023-05-20T08:10:11;98201.16;;;23.24;49.55
18323;BME280;9287;49.456;11.064;2023-05-20T08:12:39;98199.53;;;25.14;46.00
18323;BME280;9287;49.456;11.064;2023-05-20T08:15:07;98190.53;;;24.36;47.00
18323;BME280;9287;49.456;11.064;2023-05-20T08:17:35;98185.94;;;24.29;46.25
18323;BME280;9287;49.456;11.064;2023-05-20T08:20:05;98181.53;;;23.31;49.21
18323;BME280;9287;49.456;11.064;2023-05-20T08:22:36;98183.38;;;23.02;50.16
18323;BME280;9287;49.456;11.064;2023-05-20T08:25:08;98177.22;;;23.63;48.55
18323;BME280;9287;49.456;11.064;2023-05-20T08:27:36;98167.50;;;23.71;47.94
18323;BME280;9287;49.456;11.064;2023-05-20T08:30:05;98169.13;;;25.04;46.07
18323;BME280;9287;49.456;11.064;2023-05-20T08:32:35;98161.22;;;25.65;43.17
18323;BME280;9287;49.456;11.064;2023-05-20T08:35:03;98154.75;;;26.72;41.99
18323;BME280;9287;49.456;11.064;2023-05-20T08:37:32;98164.78;;;25.53;43.61
18323;BME280;9287;49.456;11.064;2023-05-20T08:40:01;98165.31;;;27.83;38.83
18323;BME280;9287;49.456;11.064;2023-05-20T08:42:30;98168.06;;;27.33;38.96
18323;BME280;9287;49.456;11.064;2023-05-20T08:44:58;98163.97;;;24.15;44.71
18323;BME280;9287;49.456;11.064;2023-05-20T08:47:27;98154.88;;;24.85;44.12
18323;BME280;9287;49.456;11.064;2023-05-20T08:49:57;98171.81;;;23.55;46.80
18323;BME280;9287;49.456;11.064;2023-05-20T08:52:25;98161.72;;;21.33;54.07
18323;BME280;9287;49.456;11.064;2023-05-20T08:54:53;98153.63;;;23.15;50.12
18323;BME280;9287;49.456;11.064;2023-05-20T08:57:24;98158.47;;;24.98;46.79
18323;BME280;9287;49.456;11.064;2023-05-20T08:59:54;98163.34;;;23.43;48.40
18323;BME280;9287;49.456;11.064;2023-05-20T09:02:22;98159.19;;;24.45;46.51
18323;BME280;9287;49.456;11.064;2023-05-20T09:04:50;98159.63;;;24.72;45.13
18323;BME280;9287;49.456;11.064;2023-05-20T09:07:25;98149.56;;;25.04;44.67
18323;BME280;9287;49.456;11.064;2023-05-20T09:09:54;98159.31;;;26.79;42.34
18323;BME280;9287;49.456;11.064;2023-05-20T09:12:21;98152.16;;;24.82;44.97
18323;BME280;9287;49.456;11.064;2023-05-20T09:14:51;98141.56;;;24.48;45.68
18323;BME280;9287;49.456;11.064;2023-05-20T09:17:20;98152.69;;;24.64;45.36
18323;BME280;9287;49.456;11.064;2023-05-20T09:19:48;98153.78;;;23.08;48.78
18323;BME280;9287;49.456;11.064;2023-05-20T09:22:21;98164.69;;;22.82;49.50
18323;BME280;9287;49.456;11.064;2023-05-20T09:24:49;98161.31;;;22.08;51.66
18323;BME280;9287;49.456;11.064;2023-05-20T09:27:17;98153.31;;;23.29;49.23
18323;BME280;9287;49.456;11.064;2023-05-20T09:29:46;98166.56;;;24.39;46.76
18323;BME280;9287;49.456;11.064;2023-05-20T09:32:17;98154.94;;;25.61;44.23
18323;BME280;9287;49.456;11.064;2023-05-20T09:34:49;98164.56;;;25.10;44.51
18323;BME280;9287;49.456;11.064;2023-05-20T09:37:17;98156.63;;;26.31;43.36
18323;BME280;9287;49.456;11.064;2023-05-20T09:39:52;98152.41;;;24.87;44.83
18323;BME280;9287;49.456;11.064;2023-05-20T09:42:26;98157.03;;;24.65;45.61
18323;BME280;9287;49.456;11.064;2023-05-20T09:44:55;98152.34;;;24.33;46.59
18323;BME280;9287;49.456;11.064;2023-05-20T09:47:26;98161.34;;;24.24;46.06
18323;BME280;9287;49.456;11.064;2023-05-20T09:49:55;98144.06;;;23.52;48.29
18323;BME280;9287;49.456;11.064;2023-05-20T09:52:25;98148.75;;;23.03;49.80
18323;BME280;9287;49.456;11.064;2023-05-20T09:54:56;98140.13;;;23.13;49.30
18323;BME280;9287;49.456;11.064;2023-05-20T09:57:24;98135.13;;;22.49;51.88
18323;BME280;9287;49.456;11.064;2023-05-20T09:59:52;98130.44;;;21.99;54.13
18323;BME280;9287;49.456;11.064;2023-05-20T10:02:20;98137.38;;;22.54;52.62
18323;BME280;9287;49.456;11.064;2023-05-20T10:04:50;98135.38;;;23.46;50.20
18323;BME280;9287;49.456;11.064;2023-05-20T10:07:30;98129.28;;;23.35;50.30
18323;BME280;9287;49.456;11.064;2023-05-20T10:10:17;98136.97;;;23.47;50.06
18323;BME280;9287;49.456;11.064;2023-05-20T10:12:52;98123.41;;;22.38;52.25
18323;BME280;9287;49.456;11.064;2023-05-20T10:15:28;98114.91;;;22.25;54.74
18323;BME280;9287;49.456;11.064;2023-05-20T10:18:10;98115.44;;;21.73;56.25
18323;BME280;9287;49.456;11.064;2023-05-20T10:20:48;98107.63;;;21.41;58.65
18323;BME280;9287;49.456;11.064;2023-05-20T10:23:20;98112.88;;;22.49;54.65
18323;BME280;9287;49.456;11.064;2023-05-20T10:25:52;98106.22;;;22.43;54.42
18323;BME280;9287;49.456;11.064;2023-05-20T10:28:31;98102.91;;;21.85;57.20
18323;BME280;9287;49.456;11.064;2023-05-20T10:30:59;98111.34;;;22.25;55.67
18323;BME280;9287;49.456;11.064;2023-05-20T10:33:28;98110.69;;;22.37;54.80
18323;BME280;9287;49.456;11.064;2023-05-20T10:35:58;98103.69;;;23.73;51.28
18323;BME280;9287;49.456;11.064;2023-05-20T10:38:26;98094.47;;;23.59;48.99
18323;BME280;9287;49.456;11.064;2023-05-20T10:40:55;98104.41;;;22.72;50.88
18323;BME280;9287;49.456;11.064;2023-05-20T10:43:26;98093.00;;;22.07;53.98
18323;BME280;9287;49.456;11.064;2023-05-20T10:45:56;98094.56;;;21.85;54.37
18323;BME280;9287;49.456;11.064;2023-05-20T10:48:27;98099.06;;;21.79;55.29
18323;BME280;9287;49.456;11.064;2023-05-20T10:50:56;98091.09;;;21.81;55.29
18323;BME280;9287;49.456;11.064;2023-05-20T10:53:26;98094.88;;;21.67;56.28
18323;BME280;9287;49.456;11.064;2023-05-20T10:56:00;98102.44;;;21.67;57.32
18323;BME280;9287;49.456;11.064;2023-05-20T10:58:35;98090.25;;;21.37;59.69
18323;BME280;9287;49.456;11.064;2023-05-20T11:01:03;98090.09;;;21.91;57.11
18323;BME280;9287;49.456;11.064;2023-05-20T11:03:32;98087.94;;;22.22;55.44
18323;BME280;9287;49.456;11.064;2023-05-20T11:06:10;98088.31;;;22.83;54.59
18323;BME280;9287;49.456;11.064;2023-05-20T11:08:39;98076.03;;;22.61;53.49
18323;BME280;9287;49.456;11.064;2023-05-20T11:11:07;98079.34;;;22.72;53.68
18323;BME280;9287;49.456;11.064;2023-05-20T11:13:35;98076.97;;;22.35;54.92
18323;BME280;9287;49.456;11.064;2023-05-20T11:16:04;98073.00;;;23.08;52.90
18323;BME280;9287;49.456;11.064;2023-05-20T11:18:32;98072.88;;;23.31;52.28
18323;BME280;9287;49.456;11.064;2023-05-20T11:21:01;98070.06;;;23.15;52.24
18323;BME280;9287;49.456;11.064;2023-05-20T11:23:29;98065.19;;;23.84;50.01
18323;BME280;9287;49.456;11.064;2023-05-20T11:25:59;98073.56;;;23.03;51.92
18323;BME280;9287;49.456;11.064;2023-05-20T11:28:26;98065.63;;;22.65;52.79
18323;BME280;9287;49.456;11.064;2023-05-20T11:30:54;98056.97;;;22.79;53.68
18323;BME280;9287;49.456;11.064;2023-05-20T11:33:25;98058.44;;;23.52;50.68
18323;BME280;9287;49.456;11.064;2023-05-20T11:35:53;98056.84;;;23.35;51.49
18323;BME280;9287;49.456;11.064;2023-05-20T11:38:21;98068.06;;;22.99;52.54
18323;BME280;9287;49.456;11.064;2023-05-20T11:40:51;98072.19;;;23.59;51.35
18323;BME280;9287;49.456;11.064;2023-05-20T11:43:23;98054.19;;;22.79;53.56
18323;BME280;9287;49.456;11.064;2023-05-20T11:45:54;98051.59;;;23.05;53.00
18323;BME280;9287;49.456;11.064;2023-05-20T11:48:25;98048.06;;;22.68;54.36
18323;BME280;9287;49.456;11.064;2023-05-20T11:50:55;98042.56;;;23.33;52.48
18323;BME280;9287;49.456;11.064;2023-05-20T11:53:26;98044.81;;;23.06;54.30
18323;BME280;9287;49.456;11.064;2023-05-20T11:55:56;98036.66;;;22.43;55.52
18323;BME280;9287;49.456;11.064;2023-05-20T11:58:26;98043.09;;;23.12;54.55
18323;BME280;9287;49.456;11.064;2023-05-20T12:00:54;98041.34;;;23.50;51.95
18323;BME280;9287;49.456;11.064;2023-05-20T12:03:34;98049.59;;;23.05;53.51
18323;BME280;9287;49.456;11.064;2023-05-20T12:06:03;98045.50;;;23.75;51.20
18323;BME280;9287;49.456;11.064;2023-05-20T12:08:31;98065.66;;;23.17;52.27
18323;BME280;9287;49.456;11.064;2023-05-20T12:10:58;98058.31;;;23.40;51.72
18323;BME280;9287;49.456;11.064;2023-05-20T12:13:28;98055.88;;;23.42;52.02
18323;BME280;9287;49.456;11.064;2023-05-20T12:15:55;98055.28;;;23.02;54.69
18323;BME280;9287;49.456;11.064;2023-05-20T12:18:23;98054.78;;;22.51;55.65
18323;BME280;9287;49.456;11.064;2023-05-20T12:20:51;98056.28;;;22.91;54.43
18323;BME280;9287;49.456;11.064;2023-05-20T12:23:19;98044.19;;;22.62;56.10
18323;BME280;9287;49.456;11.064;2023-05-20T12:25:48;98035.66;;;22.53;56.26
18323;BME280;9287;49.456;11.064;2023-05-20T12:28:16;98048.63;;;22.79;56.09
18323;BME280;9287;49.456;11.064;2023-05-20T12:30:45;98034.56;;;23.35;54.68
18323;BME280;9287;49.456;11.064;2023-05-20T12:33:13;98044.56;;;23.16;55.71
18323;BME280;9287;49.456;11.064;2023-05-20T12:35:42;98035.44;;;22.64;56.76
18323;BME280;9287;49.456;11.064;2023-05-20T12:38:11;98036.94;;;22.48;56.68
18323;BME280;9287;49.456;11.064;2023-05-20T12:40:39;98042.53;;;22.84;57.03
18323;BME280;9287;49.456;11.064;2023-05-20T12:43:07;98052.72;;;22.71;57.80
18323;BME280;9287;49.456;11.064;2023-05-20T12:45:35;98044.03;;;22.69;57.04
18323;BME280;9287;49.456;11.064;2023-05-20T12:48:05;98032.75;;;22.76;57.52
18323;BME280;9287;49.456;11.064;2023-05-20T12:50:33;98030.47;;;22.71;59.15
18323;BME280;9287;49.456;11.064;2023-05-20T12:53:01;98018.25;;;22.49;59.11
18323;BME280;9287;49.456;11.064;2023-05-20T12:55:29;98025.00;;;22.32;60.16
18323;BME280;9287;49.456;11.064;2023-05-20T12:57:57;98027.09;;;22.44;58.97
18323;BME280;9287;49.456;11.064;2023-05-20T13:00:25;98033.06;;;22.62;58.67
18323;BME280;9287;49.456;11.064;2023-05-20T13:02:53;98038.78;;;22.55;58.94
18323;BME280;9287;49.456;11.064;2023-05-20T13:05:22;98029.31;;;21.93;61.17
18323;BME280;9287;49.456;11.064;2023-05-20T13:07:50;98026.34;;;22.04;61.45
18323;BME280;9287;49.456;11.064;2023-05-20T13:10:18;98038.56;;;21.86;63.05
18323;BME280;9287;49.456;11.064;2023-05-20T13:12:45;98024.63;;;22.10;61.93